createdAt,value
2018-12-16T00:00:40.054Z,42.80
2018-12-16T00:01:40.059Z,43.80
2018-12-16T00:02:40.055Z,42.70
2018-12-16T00:03:40.038Z,43.30
2018-12-16T00:04:40.019Z,42.40
2018-12-16T00:05:40.010Z,43.10
2018-12-16T00:06:39.990Z,41.00
2018-12-16T00:07:40.000Z,43.60
2018-12-16T00:08:39.970Z,42.00
2018-12-16T00:09:39.958Z,42.20
2018-12-16T00:10:39.946Z,42.10
2018-12-16T00:11:39.936Z,42.40
2018-12-16T00:12:39.945Z,42.50
2018-12-16T00:13:39.917Z,41.40
2018-12-16T00:14:39.908Z,42.30
2018-12-16T00:15:39.904Z,43.70
2018-12-16T00:16:39.882Z,42.10
2018-12-16T00:17:39.890Z,43.10
2018-12-16T00:18:39.857Z,41.70
2018-12-16T00:19:39.844Z,43.20
2018-12-16T00:20:39.829Z,42.80
2018-12-16T00:21:39.823Z,41.90
2018-12-16T00:22:39.837Z,43.30
2018-12-16T00:23:39.802Z,42.50
2018-12-16T00:24:39.797Z,43.20
2018-12-16T00:25:39.806Z,41.70
2018-12-16T00:26:39.770Z,41.50
2018-12-16T00:27:39.779Z,42.20
2018-12-16T00:28:39.747Z,41.80
2018-12-16T00:29:39.730Z,41.30
2018-12-16T00:30:39.727Z,43.70
2018-12-16T00:31:39.716Z,41.90
2018-12-16T00:32:39.713Z,41.60
2018-12-16T00:33:39.694Z,40.90
2018-12-16T00:34:39.678Z,42.00
2018-12-16T00:35:39.675Z,42.00
2018-12-16T00:36:39.653Z,41.00
2018-12-16T00:37:39.669Z,40.90
2018-12-16T00:38:39.670Z,42.20
2018-12-16T00:39:39.629Z,42.10
2018-12-16T00:40:39.632Z,40.20
2018-12-16T00:41:39.607Z,41.00
2018-12-16T00:42:39.617Z,40.70
2018-12-16T00:43:39.584Z,41.10
2018-12-16T00:44:39.582Z,43.00
2018-12-16T00:45:39.558Z,41.20
2018-12-16T00:46:39.551Z,41.60
2018-12-16T00:47:39.579Z,39.90
2018-12-16T00:48:39.524Z,41.20
2018-12-16T00:49:39.516Z,40.40
2018-12-16T00:50:39.551Z,41.20
2018-12-16T00:51:39.495Z,42.40
2018-12-16T00:52:39.480Z,40.60
2018-12-16T00:53:39.489Z,40.30
2018-12-16T00:54:39.453Z,41.50
2018-12-16T00:55:39.447Z,39.30
2018-12-16T00:56:39.453Z,40.10
2018-12-16T00:57:39.450Z,40.60
2018-12-16T00:58:39.434Z,40.70
2018-12-16T00:59:39.398Z,39.30
2018-12-16T01:00:39.415Z,38.40
2018-12-16T01:01:39.435Z,38.90
2018-12-16T01:02:39.379Z,37.70
2018-12-16T01:03:40.365Z,37.70
2018-12-16T01:04:39.360Z,38.70
2018-12-16T01:05:39.337Z,39.80
2018-12-16T01:06:39.332Z,38.20
2018-12-16T01:07:39.315Z,38.40
2018-12-16T01:08:39.332Z,37.30
2018-12-16T01:09:39.299Z,38.80
2018-12-16T01:10:39.334Z,38.30
2018-12-16T01:11:39.268Z,37.50
2018-12-16T01:12:39.270Z,35.70
2018-12-16T01:13:39.272Z,37.40
2018-12-16T01:14:39.290Z,36.30
2018-12-16T01:15:39.239Z,37.60
2018-12-16T01:16:39.233Z,37.00
2018-12-16T01:17:39.206Z,37.50
2018-12-16T01:18:39.229Z,37.50
2018-12-16T01:19:39.193Z,36.70
2018-12-16T01:20:39.173Z,35.60
2018-12-16T01:21:39.176Z,35.60
2018-12-16T01:22:43.360Z,35.30
2018-12-16T01:23:39.179Z,35.70
2018-12-16T01:24:39.165Z,34.60
2018-12-16T01:25:39.120Z,36.10
2018-12-16T01:26:39.113Z,35.70
2018-12-16T01:27:39.113Z,34.30
2018-12-16T01:28:39.147Z,35.70
2018-12-16T01:29:39.077Z,35.40
2018-12-16T01:30:39.060Z,34.80
2018-12-16T01:31:39.053Z,35.20
2018-12-16T01:32:39.051Z,35.40
2018-12-16T01:33:39.058Z,36.00
2018-12-16T01:34:39.043Z,34.80
2018-12-16T01:35:39.008Z,35.40
2018-12-16T01:36:39.000Z,34.10
2018-12-16T01:37:38.990Z,35.60
2018-12-16T01:38:38.980Z,34.30
2018-12-16T01:39:38.984Z,35.30
2018-12-16T01:40:38.951Z,35.30
2018-12-16T01:41:38.945Z,33.60
2018-12-16T01:42:38.922Z,33.80
2018-12-16T01:43:38.920Z,33.20
2018-12-16T01:44:38.920Z,31.70
2018-12-16T01:45:38.887Z,32.00
2018-12-16T01:46:38.912Z,32.70
2018-12-16T01:47:38.871Z,32.00
2018-12-16T01:48:38.855Z,33.00
2018-12-16T01:49:38.877Z,32.70
2018-12-16T01:50:38.848Z,32.50
2018-12-16T01:51:38.831Z,31.50
2018-12-16T01:52:38.822Z,32.20
2018-12-16T01:53:38.800Z,31.50
2018-12-16T01:54:38.805Z,32.30
2018-12-16T01:55:38.776Z,31.80
2018-12-16T01:56:38.776Z,31.30
2018-12-16T01:57:38.765Z,31.60
2018-12-16T01:58:38.753Z,30.60
2018-12-16T01:59:38.754Z,31.80
2018-12-16T02:00:38.723Z,31.10
2018-12-16T02:01:38.715Z,30.90
2018-12-16T02:02:38.698Z,30.20
2018-12-16T02:03:38.695Z,29.80
2018-12-16T02:04:38.705Z,29.40
2018-12-16T02:05:38.668Z,28.90
2018-12-16T02:06:38.658Z,28.80
2018-12-16T02:07:38.651Z,29.40
2018-12-16T02:08:38.637Z,29.50
2018-12-16T02:09:38.645Z,29.20
2018-12-16T02:10:38.652Z,29.90
2018-12-16T02:11:38.602Z,29.40
2018-12-16T02:12:38.589Z,29.00
2018-12-16T02:13:38.580Z,27.80
2018-12-16T02:14:38.586Z,27.80
2018-12-16T02:15:38.560Z,27.50
2018-12-16T02:16:38.557Z,27.90
2018-12-16T02:17:38.535Z,28.00
2018-12-16T02:18:38.528Z,27.50
2018-12-16T02:19:38.532Z,26.50
2018-12-16T02:20:38.502Z,27.30
2018-12-16T02:21:38.493Z,26.40
2018-12-16T02:22:38.487Z,26.60
2018-12-16T02:23:38.467Z,26.80
2018-12-16T02:24:38.494Z,26.00
2018-12-16T02:25:38.447Z,25.40
2018-12-16T02:26:38.441Z,24.90
2018-12-16T02:27:38.420Z,24.70
2018-12-16T02:28:38.413Z,24.80
2018-12-16T02:29:38.411Z,24.70
2018-12-16T02:30:38.420Z,24.40
2018-12-16T02:31:38.383Z,23.10
2018-12-16T02:32:38.372Z,23.50
2018-12-16T02:33:38.369Z,22.30
2018-12-16T02:34:38.351Z,23.80
2018-12-16T02:35:38.363Z,22.80
2018-12-16T02:36:38.329Z,21.50
2018-12-16T02:37:38.314Z,22.50
2018-12-16T02:38:38.301Z,22.00
2018-12-16T02:39:38.290Z,22.40
2018-12-16T02:40:38.301Z,22.30
2018-12-16T02:41:38.274Z,21.10
2018-12-16T02:42:38.284Z,22.30
2018-12-16T02:43:38.245Z,21.30
2018-12-16T02:44:38.245Z,22.60
2018-12-16T02:45:38.252Z,21.10
2018-12-16T02:46:38.214Z,21.70
2018-12-16T02:47:38.202Z,21.30
2018-12-16T02:48:38.235Z,21.80
2018-12-16T02:49:38.184Z,20.60
2018-12-16T02:50:38.191Z,21.00
2018-12-16T02:51:38.158Z,20.50
2018-12-16T02:52:38.165Z,20.60
2018-12-16T02:53:38.170Z,21.50
2018-12-16T02:54:38.121Z,20.60
2018-12-16T02:55:38.133Z,21.60
2018-12-16T02:56:38.102Z,20.80
2018-12-16T02:57:38.095Z,21.10
2018-12-16T02:58:38.084Z,20.30
2018-12-16T02:59:38.074Z,21.00
2018-12-16T03:00:38.075Z,19.90
2018-12-16T03:01:38.048Z,19.40
2018-12-16T03:02:38.049Z,20.40
2018-12-16T03:03:38.029Z,19.10
2018-12-16T03:04:38.035Z,19.40
2018-12-16T03:05:38.042Z,19.30
2018-12-16T03:06:37.995Z,19.60
2018-12-16T03:07:37.982Z,20.30
2018-12-16T03:08:37.972Z,20.80
2018-12-16T03:09:37.958Z,20.00
2018-12-16T03:10:37.974Z,20.50
2018-12-16T03:11:37.948Z,20.00
2018-12-16T03:12:37.940Z,21.00
2018-12-16T03:13:37.936Z,19.90
2018-12-16T03:14:37.916Z,19.60
2018-12-16T03:15:37.913Z,21.20
2018-12-16T03:16:37.884Z,20.10
2018-12-16T03:17:37.879Z,21.10
2018-12-16T03:18:37.860Z,20.60
2018-12-16T03:19:37.850Z,21.00
2018-12-16T03:20:37.879Z,20.20
2018-12-16T03:21:37.829Z,21.40
2018-12-16T03:22:37.816Z,21.00
2018-12-16T03:23:37.806Z,21.10
2018-12-16T03:24:37.795Z,21.60
2018-12-16T03:25:37.805Z,22.20
2018-12-16T03:26:37.770Z,23.80
2018-12-16T03:27:37.760Z,24.00
2018-12-16T03:28:37.751Z,24.40
2018-12-16T03:29:37.738Z,24.80
2018-12-16T03:30:37.766Z,25.70
2018-12-16T03:31:37.734Z,25.40
2018-12-16T03:32:37.707Z,24.70
2018-12-16T03:33:37.737Z,31.20
2018-12-16T03:34:37.690Z,25.90
2018-12-16T03:35:37.700Z,26.80
2018-12-16T03:36:37.662Z,27.40
2018-12-16T03:37:37.647Z,27.90
2018-12-16T03:38:37.644Z,27.10
2018-12-16T03:39:37.628Z,27.80
2018-12-16T03:40:37.650Z,27.60
2018-12-16T03:41:37.607Z,27.80
2018-12-16T03:42:37.611Z,28.10
2018-12-16T03:43:37.585Z,29.10
2018-12-16T03:44:37.572Z,27.20
2018-12-16T03:45:37.594Z,28.60
2018-12-16T03:46:37.557Z,29.30
2018-12-16T03:47:37.548Z,29.10
2018-12-16T03:48:37.534Z,28.90
2018-12-16T03:49:37.540Z,29.60
2018-12-16T03:50:37.507Z,29.90
2018-12-16T03:51:37.528Z,29.80
2018-12-16T03:52:37.487Z,30.50
2018-12-16T03:53:37.474Z,30.40
2018-12-16T03:54:37.479Z,30.40
2018-12-16T03:55:37.457Z,30.60
2018-12-16T03:56:37.459Z,30.20
2018-12-16T03:57:37.428Z,29.00
2018-12-16T03:58:37.419Z,31.00
2018-12-16T03:59:37.415Z,30.00
2018-12-16T04:00:37.397Z,29.60
2018-12-16T04:01:37.513Z,30.90
2018-12-16T04:02:37.375Z,31.60
2018-12-16T04:03:37.366Z,30.70
2018-12-16T04:04:37.348Z,30.80
2018-12-16T04:05:37.349Z,32.40
2018-12-16T04:06:37.379Z,30.90
2018-12-16T04:07:37.322Z,31.80
2018-12-16T04:08:37.329Z,33.40
2018-12-16T04:09:37.301Z,31.30
2018-12-16T04:10:37.288Z,32.20
2018-12-16T04:11:37.299Z,31.60
2018-12-16T04:12:37.261Z,32.10
2018-12-16T04:13:37.267Z,31.30
2018-12-16T04:14:37.239Z,32.20
2018-12-16T04:15:37.242Z,32.00
2018-12-16T04:16:37.244Z,32.30
2018-12-16T04:17:37.208Z,32.60
2018-12-16T04:18:37.228Z,32.60
2018-12-16T04:19:37.189Z,33.10
2018-12-16T04:20:37.179Z,32.90
2018-12-16T04:21:37.183Z,31.80
2018-12-16T04:22:37.214Z,32.70
2018-12-16T04:23:37.146Z,32.40
2018-12-16T04:24:37.136Z,33.00
2018-12-16T04:25:37.121Z,32.70
2018-12-16T04:26:37.133Z,32.20
2018-12-16T04:27:37.099Z,33.00
2018-12-16T04:28:37.094Z,33.30
2018-12-16T04:29:37.074Z,31.90
2018-12-16T04:30:37.072Z,32.80
2018-12-16T04:31:37.075Z,32.30
2018-12-16T04:32:37.058Z,33.40
2018-12-16T04:33:37.039Z,32.90
2018-12-16T04:34:37.019Z,32.30
2018-12-16T04:35:37.015Z,32.60
2018-12-16T04:36:37.017Z,32.30
2018-12-16T04:37:36.989Z,34.40
2018-12-16T04:38:36.981Z,32.80
2018-12-16T04:39:36.978Z,32.00
2018-12-16T04:40:36.960Z,33.00
2018-12-16T04:41:36.966Z,33.10
2018-12-16T04:42:36.934Z,32.50
2018-12-16T04:43:36.926Z,34.30
2018-12-16T04:44:36.919Z,33.80
2018-12-16T04:45:36.903Z,34.50
2018-12-16T04:46:36.912Z,33.30
2018-12-16T04:47:36.883Z,33.60
2018-12-16T04:48:36.869Z,33.80
2018-12-16T04:49:36.853Z,33.80
2018-12-16T04:50:36.846Z,34.00
2018-12-16T04:51:36.854Z,35.20
2018-12-16T04:52:36.823Z,34.20
2018-12-16T04:53:37.176Z,34.60
2018-12-16T04:54:36.813Z,33.90
2018-12-16T04:55:36.787Z,34.60
2018-12-16T04:56:36.814Z,34.00
2018-12-16T04:57:36.787Z,34.90
2018-12-16T04:58:36.756Z,34.40
2018-12-16T04:59:36.740Z,34.50
2018-12-16T05:00:36.738Z,33.90
2018-12-16T05:01:36.749Z,35.00
2018-12-16T05:02:36.727Z,34.50
2018-12-16T05:03:36.702Z,34.90
2018-12-16T05:04:36.690Z,35.00
2018-12-16T05:05:36.702Z,33.90
2018-12-16T05:06:36.674Z,33.70
2018-12-16T05:07:36.686Z,33.70
2018-12-16T05:08:36.656Z,34.30
2018-12-16T05:09:36.640Z,34.00
2018-12-16T05:10:36.623Z,34.20
2018-12-16T05:11:36.858Z,34.90
2018-12-16T05:12:36.619Z,34.00
2018-12-16T05:13:36.597Z,33.80
2018-12-16T05:14:36.583Z,34.70
2018-12-16T05:15:36.573Z,34.60
2018-12-16T05:16:36.564Z,33.90
2018-12-16T05:17:36.601Z,33.10
2018-12-16T05:18:36.533Z,34.50
2018-12-16T05:19:36.531Z,33.60
2018-12-16T05:20:36.511Z,32.80
2018-12-16T05:21:36.505Z,31.80
2018-12-16T05:22:36.487Z,32.70
2018-12-16T05:23:41.888Z,32.80
2018-12-16T05:24:37.470Z,32.60
2018-12-16T05:25:36.462Z,31.90
2018-12-16T05:26:36.443Z,31.90
2018-12-16T05:27:36.463Z,33.20
2018-12-16T05:28:36.426Z,32.50
2018-12-16T05:29:36.418Z,32.90
2018-12-16T05:30:36.407Z,32.70
2018-12-16T05:31:36.387Z,32.20
2018-12-16T05:32:36.399Z,31.20
2018-12-16T05:33:36.367Z,33.30
2018-12-16T05:34:36.355Z,31.70
2018-12-16T05:35:36.348Z,33.30
2018-12-16T05:36:36.340Z,32.60
2018-12-16T05:37:36.345Z,32.20
2018-12-16T05:38:36.314Z,32.50
2018-12-16T05:39:36.305Z,33.20
2018-12-16T05:40:36.293Z,31.60
2018-12-16T05:41:36.276Z,33.50
2018-12-16T05:42:36.290Z,32.70
2018-12-16T05:43:36.253Z,33.00
2018-12-16T05:44:36.269Z,32.30
2018-12-16T05:45:36.243Z,32.20
2018-12-16T05:46:36.227Z,31.70
2018-12-16T05:47:36.216Z,32.50
2018-12-16T05:48:36.204Z,32.10
2018-12-16T05:49:36.212Z,32.20
2018-12-16T05:50:36.180Z,32.10
2018-12-16T05:51:36.170Z,33.00
2018-12-16T05:52:36.160Z,34.10
2018-12-16T05:53:36.167Z,32.10
2018-12-16T05:54:36.139Z,32.60
2018-12-16T05:55:36.129Z,33.10
2018-12-16T05:56:36.126Z,32.30
2018-12-16T05:57:36.103Z,33.40
2018-12-16T05:58:36.108Z,32.80
2018-12-16T05:59:36.094Z,34.20
2018-12-16T06:00:36.076Z,33.70
2018-12-16T06:01:36.058Z,33.60
2018-12-16T06:02:36.050Z,31.90
2018-12-16T06:03:36.064Z,33.30
2018-12-16T06:04:36.026Z,33.70
2018-12-16T06:05:36.025Z,33.00
2018-12-16T06:06:36.012Z,33.80
2018-12-16T06:07:35.996Z,34.00
2018-12-16T06:08:36.002Z,32.90
2018-12-16T06:09:35.969Z,33.10
2018-12-16T06:10:35.961Z,32.90
2018-12-16T06:11:35.949Z,32.80
2018-12-16T06:12:35.938Z,33.40
2018-12-16T06:13:35.938Z,32.90
2018-12-16T06:14:35.913Z,32.80
2018-12-16T06:15:35.905Z,32.90
2018-12-16T06:16:35.893Z,33.30
2018-12-16T06:17:35.883Z,31.20
2018-12-16T06:18:36.095Z,32.00
2018-12-16T06:19:35.868Z,32.10
2018-12-16T06:20:35.849Z,32.40
2018-12-16T06:21:35.856Z,32.70
2018-12-16T06:22:35.825Z,31.60
2018-12-16T06:23:35.849Z,32.20
2018-12-16T06:24:35.848Z,32.20
2018-12-16T06:25:35.804Z,30.80
2018-12-16T06:26:35.784Z,32.50
2018-12-16T06:27:35.772Z,32.00
2018-12-16T06:28:35.781Z,33.40
2018-12-16T06:29:35.749Z,31.90
2018-12-16T06:30:35.741Z,32.70
2018-12-16T06:31:35.739Z,32.20
2018-12-16T06:32:35.750Z,31.60
2018-12-16T06:33:35.723Z,30.40
2018-12-16T06:34:35.692Z,31.00
2018-12-16T06:35:35.678Z,32.00
2018-12-16T06:36:35.671Z,32.90
2018-12-16T06:37:35.663Z,32.40
2018-12-16T06:38:35.666Z,33.70
2018-12-16T06:39:35.641Z,31.00
2018-12-16T06:40:35.627Z,30.80
2018-12-16T06:41:35.616Z,33.30
2018-12-16T06:42:35.605Z,32.70
2018-12-16T06:43:35.613Z,30.90
2018-12-16T06:44:35.580Z,31.20
2018-12-16T06:45:35.572Z,30.40
2018-12-16T06:46:35.561Z,31.40
2018-12-16T06:47:35.551Z,31.60
2018-12-16T06:48:35.569Z,32.10
2018-12-16T06:49:35.531Z,31.10
2018-12-16T06:50:35.517Z,30.60
2018-12-16T06:51:35.501Z,31.00
2018-12-16T06:52:35.491Z,30.70
2018-12-16T06:53:35.503Z,30.60
2018-12-16T06:54:35.476Z,31.20
2018-12-16T06:55:35.464Z,30.50
2018-12-16T06:56:35.449Z,30.50
2018-12-16T06:57:35.442Z,30.60
2018-12-16T06:58:35.459Z,31.20
2018-12-16T06:59:35.414Z,30.10
2018-12-16T07:00:35.404Z,30.90
2018-12-16T07:01:35.400Z,30.90
2018-12-16T07:02:35.389Z,30.90
2018-12-16T07:03:35.408Z,29.80
2018-12-16T07:04:35.360Z,30.70
2018-12-16T07:05:35.355Z,28.70
2018-12-16T07:06:35.345Z,29.10
2018-12-16T07:07:35.336Z,29.50
2018-12-16T07:08:35.319Z,30.30
2018-12-16T07:09:35.326Z,28.60
2018-12-16T07:10:35.292Z,29.10
2018-12-16T07:11:35.295Z,29.20
2018-12-16T07:12:35.277Z,29.00
2018-12-16T07:13:35.288Z,29.30
2018-12-16T07:14:35.275Z,28.10
2018-12-16T07:15:35.241Z,29.20
2018-12-16T07:16:35.231Z,29.70
2018-12-16T07:17:35.229Z,28.40
2018-12-16T07:18:35.216Z,29.70
2018-12-16T07:19:35.230Z,30.10
2018-12-16T07:20:35.209Z,28.50
2018-12-16T07:21:35.194Z,28.10
2018-12-16T07:22:35.187Z,29.00
2018-12-16T07:23:35.181Z,27.80
2018-12-16T07:24:35.181Z,28.80
2018-12-16T07:25:35.151Z,27.40
2018-12-16T07:26:35.148Z,27.60
2018-12-16T07:27:35.126Z,27.20
2018-12-16T07:28:35.101Z,28.60
2018-12-16T07:29:35.106Z,27.10
2018-12-16T07:30:35.098Z,26.90
2018-12-16T07:31:35.082Z,28.60
2018-12-16T07:32:35.053Z,27.00
2018-12-16T07:33:35.044Z,28.60
2018-12-16T07:34:35.053Z,27.00
2018-12-16T07:35:35.022Z,27.30
2018-12-16T07:36:35.035Z,27.20
2018-12-16T07:37:34.997Z,27.50
2018-12-16T07:38:35.002Z,27.50
2018-12-16T07:39:35.028Z,27.10
2018-12-16T07:40:35.001Z,26.70
2018-12-16T07:41:34.982Z,27.80
2018-12-16T07:42:34.944Z,27.50
2018-12-16T07:43:34.938Z,27.60
2018-12-16T07:44:34.944Z,27.40
2018-12-16T07:45:34.911Z,26.90
2018-12-16T07:46:34.912Z,27.90
2018-12-16T07:47:34.889Z,27.40
2018-12-16T07:48:34.920Z,27.30
2018-12-16T07:49:34.932Z,27.40
2018-12-16T07:50:34.901Z,29.10
2018-12-16T07:51:34.850Z,28.30
2018-12-16T07:52:34.913Z,30.90
2018-12-16T07:53:34.827Z,29.60
2018-12-16T07:54:34.818Z,29.30
2018-12-16T07:55:34.816Z,27.70
2018-12-16T07:56:35.104Z,28.70
2018-12-16T07:57:34.798Z,27.30
2018-12-16T07:58:34.775Z,26.70
2018-12-16T07:59:34.775Z,27.00
2018-12-16T08:00:34.764Z,25.20
2018-12-16T08:01:34.762Z,26.10
2018-12-16T08:02:34.736Z,25.60
2018-12-16T08:03:34.721Z,25.90
2018-12-16T08:04:34.707Z,26.20
2018-12-16T08:05:34.729Z,25.20
2018-12-16T08:06:34.686Z,25.40
2018-12-16T08:07:34.668Z,24.50
2018-12-16T08:08:34.660Z,25.90
2018-12-16T08:09:34.648Z,24.90
2018-12-16T08:10:34.660Z,25.10
2018-12-16T08:11:34.624Z,24.90
2018-12-16T08:12:34.628Z,24.20
2018-12-16T08:13:34.623Z,24.60
2018-12-16T08:14:34.590Z,24.20
2018-12-16T08:15:34.578Z,24.70
2018-12-16T08:16:34.563Z,22.70
2018-12-16T08:17:34.556Z,22.70
2018-12-16T08:18:34.560Z,22.70
2018-12-16T08:19:34.544Z,22.20
2018-12-16T08:20:34.546Z,21.00
2018-12-16T08:21:34.511Z,20.60
2018-12-16T08:22:34.523Z,20.30
2018-12-16T08:23:35.490Z,21.10
2018-12-16T08:24:34.479Z,21.60
2018-12-16T08:25:34.492Z,23.00
2018-12-16T08:26:34.457Z,22.40
2018-12-16T08:27:34.450Z,22.10
2018-12-16T08:28:34.458Z,21.90
2018-12-16T08:29:34.424Z,23.10
2018-12-16T08:30:34.430Z,22.70
2018-12-16T08:31:34.399Z,22.90
2018-12-16T08:32:34.393Z,23.10
2018-12-16T08:33:34.381Z,23.80
2018-12-16T08:34:34.366Z,22.90
2018-12-16T08:35:34.379Z,23.50
2018-12-16T08:36:34.344Z,23.10
2018-12-16T08:37:34.333Z,23.40
2018-12-16T08:38:34.334Z,24.00
2018-12-16T08:39:34.314Z,24.00
2018-12-16T08:40:34.342Z,25.00
2018-12-16T08:41:34.293Z,24.50
2018-12-16T08:42:34.280Z,25.50
2018-12-16T08:43:34.272Z,25.30
2018-12-16T08:44:34.264Z,24.90
2018-12-16T08:45:34.246Z,24.70
2018-12-16T08:46:34.257Z,23.50
2018-12-16T08:47:34.230Z,22.80
2018-12-16T08:48:34.211Z,23.60
2018-12-16T08:49:34.202Z,24.00
2018-12-16T08:50:34.193Z,22.60
2018-12-16T08:51:34.200Z,22.90
2018-12-16T08:52:34.173Z,23.00
2018-12-16T08:53:34.161Z,22.80
2018-12-16T08:54:34.155Z,23.80
2018-12-16T08:55:34.166Z,23.40
2018-12-16T08:56:34.144Z,24.10
2018-12-16T08:57:34.113Z,23.70
2018-12-16T08:58:34.105Z,23.30
2018-12-16T08:59:34.092Z,23.10
2018-12-16T09:00:34.083Z,23.30
2018-12-16T09:01:34.118Z,24.00
2018-12-16T09:02:34.096Z,24.50
2018-12-16T09:03:34.045Z,24.90
2018-12-16T09:04:34.039Z,24.50
2018-12-16T09:05:34.031Z,24.30
2018-12-16T09:06:35.876Z,24.90
2018-12-16T09:07:37.303Z,24.30
2018-12-16T09:08:33.987Z,23.50
2018-12-16T09:09:33.980Z,23.60
2018-12-16T09:10:34.500Z,23.90
2018-12-16T09:11:33.979Z,21.30
2018-12-16T09:12:33.952Z,20.90
2018-12-16T09:13:33.941Z,20.50
2018-12-16T09:14:33.923Z,20.00
2018-12-16T09:15:33.918Z,20.50
2018-12-16T09:16:33.928Z,21.60
2018-12-16T09:17:33.894Z,19.90
2018-12-16T09:18:33.880Z,20.00
2018-12-16T09:19:33.870Z,22.20
2018-12-16T09:20:33.861Z,19.80
2018-12-16T09:21:33.873Z,20.30
2018-12-16T09:22:33.843Z,21.00
2018-12-16T09:23:33.861Z,20.70
2018-12-16T09:24:37.248Z,21.70
2018-12-16T09:25:33.805Z,22.40
2018-12-16T09:26:33.810Z,22.80
2018-12-16T09:27:33.790Z,20.70
2018-12-16T09:28:33.772Z,19.20
2018-12-16T09:29:33.763Z,18.90
2018-12-16T09:30:33.750Z,19.50
2018-12-16T09:31:33.757Z,19.40
2018-12-16T09:32:33.731Z,19.60
2018-12-16T09:33:33.713Z,20.50
2018-12-16T09:34:33.719Z,20.50
2018-12-16T09:35:33.695Z,20.50
2018-12-16T09:36:33.711Z,19.70
2018-12-16T09:37:33.673Z,19.70
2018-12-16T09:38:33.658Z,20.00
2018-12-16T09:39:33.653Z,21.30
2018-12-16T09:40:33.641Z,20.20
2018-12-16T09:41:33.645Z,19.80
2018-12-16T09:42:34.125Z,20.00
2018-12-16T09:43:33.603Z,20.60
2018-12-16T09:44:33.592Z,21.00
2018-12-16T09:45:33.585Z,19.60
2018-12-16T09:46:33.592Z,19.80
2018-12-16T09:47:33.567Z,19.40
2018-12-16T09:48:33.549Z,19.50
2018-12-16T09:49:33.535Z,20.10
2018-12-16T09:50:33.530Z,19.80
2018-12-16T09:51:33.561Z,21.10
2018-12-16T09:52:33.506Z,20.90
2018-12-16T09:53:33.531Z,20.20
2018-12-16T09:54:33.496Z,20.80
2018-12-16T09:55:33.488Z,21.50
2018-12-16T09:56:33.463Z,21.00
2018-12-16T09:57:33.467Z,20.80
2018-12-16T09:58:33.436Z,20.90
2018-12-16T09:59:33.425Z,21.20
2018-12-16T10:00:33.423Z,19.80
2018-12-16T10:01:33.411Z,21.60
2018-12-16T10:02:33.427Z,21.70
2018-12-16T10:03:33.383Z,20.00
2018-12-16T10:04:33.394Z,20.30
2018-12-16T10:05:33.421Z,20.70
2018-12-16T10:06:33.421Z,19.90
2018-12-16T10:07:33.379Z,20.80
2018-12-16T10:08:33.326Z,20.60
2018-12-16T10:09:33.326Z,20.70
2018-12-16T10:10:33.298Z,21.00
2018-12-16T10:11:33.292Z,20.50
2018-12-16T10:12:33.298Z,20.40
2018-12-16T10:13:33.271Z,20.30
2018-12-16T10:14:33.268Z,20.10
2018-12-16T10:15:33.258Z,18.10
2018-12-16T10:16:33.235Z,18.30
2018-12-16T10:17:33.248Z,19.30
2018-12-16T10:18:33.227Z,19.80
2018-12-16T10:19:33.202Z,19.30
2018-12-16T10:20:33.199Z,20.30
2018-12-16T10:21:33.181Z,20.20
2018-12-16T10:22:33.190Z,20.90
2018-12-16T10:23:33.162Z,20.50
2018-12-16T10:24:33.147Z,19.60
2018-12-16T10:25:33.137Z,20.00
2018-12-16T10:26:33.130Z,20.40
2018-12-16T10:27:33.136Z,20.30
2018-12-16T10:28:33.325Z,19.40
2018-12-16T10:29:33.094Z,19.50
2018-12-16T10:30:33.082Z,18.50
2018-12-16T10:31:33.083Z,18.30
2018-12-16T10:32:33.100Z,17.90
2018-12-16T10:33:33.047Z,17.60
2018-12-16T10:34:33.042Z,16.10
2018-12-16T10:35:33.042Z,17.90
2018-12-16T10:36:33.016Z,16.90
2018-12-16T10:37:33.030Z,17.80
2018-12-16T10:38:32.993Z,17.70
2018-12-16T10:39:32.981Z,17.70
2018-12-16T10:40:32.975Z,17.30
2018-12-16T10:41:32.960Z,18.20
2018-12-16T10:42:32.969Z,17.00
2018-12-16T10:43:32.949Z,16.70
2018-12-16T10:44:32.926Z,16.60
2018-12-16T10:45:32.975Z,16.70
2018-12-16T10:46:32.908Z,16.40
2018-12-16T10:47:32.916Z,16.20
2018-12-16T10:48:32.891Z,17.10
2018-12-16T10:49:32.878Z,16.30
2018-12-16T10:50:32.858Z,17.50
2018-12-16T10:51:32.857Z,15.80
2018-12-16T10:52:33.003Z,16.20
2018-12-16T10:53:32.828Z,16.30
2018-12-16T10:54:32.826Z,16.10
2018-12-16T10:55:32.815Z,15.90
2018-12-16T10:56:32.801Z,16.80
2018-12-16T10:57:32.812Z,15.90
2018-12-16T10:58:32.772Z,16.00
2018-12-16T10:59:32.775Z,16.40
2018-12-16T11:00:32.748Z,16.60
2018-12-16T11:01:32.745Z,16.80
2018-12-16T11:02:32.747Z,16.10
2018-12-16T11:03:32.746Z,17.30
2018-12-16T11:04:32.704Z,15.80
2018-12-16T11:05:32.703Z,16.70
2018-12-16T11:06:32.688Z,17.10
2018-12-16T11:07:32.680Z,16.30
2018-12-16T11:08:32.689Z,17.10
2018-12-16T11:09:32.659Z,17.10
2018-12-16T11:10:32.667Z,16.80
2018-12-16T11:11:32.634Z,15.60
2018-12-16T11:12:32.623Z,16.60
2018-12-16T11:13:32.670Z,15.90
2018-12-16T11:14:32.607Z,16.50
2018-12-16T11:15:32.589Z,16.00
2018-12-16T11:16:32.577Z,16.60
2018-12-16T11:17:32.564Z,16.60
2018-12-16T11:18:32.578Z,17.00
2018-12-16T11:19:32.560Z,15.90
2018-12-16T11:20:32.526Z,16.00
2018-12-16T11:21:32.558Z,16.70
2018-12-16T11:22:32.508Z,17.40
2018-12-16T11:23:32.516Z,17.30
2018-12-16T11:24:32.519Z,17.70
2018-12-16T11:25:32.477Z,17.90
2018-12-16T11:26:32.468Z,17.80
2018-12-16T11:27:32.455Z,17.70
2018-12-16T11:28:32.478Z,17.40
2018-12-16T11:29:32.439Z,17.30
2018-12-16T11:30:32.421Z,16.50
2018-12-16T11:31:32.406Z,18.20
2018-12-16T11:32:32.397Z,17.50
2018-12-16T11:33:32.408Z,16.50
2018-12-16T11:34:32.375Z,17.70
2018-12-16T11:35:32.366Z,17.60
2018-12-16T11:36:32.371Z,18.00
2018-12-16T11:37:32.350Z,17.30
2018-12-16T11:38:32.364Z,17.70
2018-12-16T11:39:32.340Z,17.90
2018-12-16T11:40:32.329Z,17.70
2018-12-16T11:41:32.299Z,17.40
2018-12-16T11:42:32.290Z,17.10
2018-12-16T11:43:32.294Z,16.80
2018-12-16T11:44:32.274Z,17.30
2018-12-16T11:45:32.262Z,16.90
2018-12-16T11:46:32.252Z,16.50
2018-12-16T11:47:32.241Z,16.10
2018-12-16T11:48:32.244Z,16.00
2018-12-16T11:49:32.207Z,16.50
2018-12-16T11:50:32.204Z,17.90
2018-12-16T11:51:32.350Z,16.70
2018-12-16T11:52:32.189Z,16.30
2018-12-16T11:53:32.210Z,16.40
2018-12-16T11:54:32.150Z,17.70
2018-12-16T11:55:32.227Z,16.80
2018-12-16T11:56:32.137Z,17.40
2018-12-16T11:57:32.349Z,18.00
2018-12-16T11:58:32.142Z,16.60
2018-12-16T11:59:32.563Z,17.40
2018-12-16T12:00:32.093Z,16.00
2018-12-16T12:01:32.101Z,17.50
2018-12-16T12:02:32.955Z,16.90
2018-12-16T12:03:32.051Z,17.40
2018-12-16T12:04:32.073Z,16.80
2018-12-16T12:05:32.030Z,17.20
2018-12-16T12:06:32.021Z,17.30
2018-12-16T12:07:32.016Z,17.30
2018-12-16T12:08:32.001Z,17.40
2018-12-16T12:09:32.018Z,17.90
2018-12-16T12:10:32.201Z,17.80
2018-12-16T12:11:31.977Z,17.40
2018-12-16T12:12:31.977Z,18.40
2018-12-16T12:13:31.947Z,18.00
2018-12-16T12:14:31.958Z,18.60
2018-12-16T12:15:31.928Z,17.20
2018-12-16T12:16:31.928Z,18.50
2018-12-16T12:17:31.936Z,18.90
2018-12-16T12:18:31.892Z,17.70
2018-12-16T12:19:32.363Z,17.60
2018-12-16T12:20:31.908Z,18.60
2018-12-16T12:21:31.862Z,18.80
2018-12-16T12:22:31.846Z,18.40
2018-12-16T12:23:31.837Z,19.20
2018-12-16T12:24:31.852Z,18.60
2018-12-16T12:25:31.833Z,18.00
2018-12-16T12:26:31.880Z,18.90
2018-12-16T12:27:31.796Z,19.10
2018-12-16T12:28:31.792Z,17.80
2018-12-16T12:29:31.800Z,18.40
2018-12-16T12:30:31.768Z,18.80
2018-12-16T12:31:31.776Z,17.50
2018-12-16T12:32:31.748Z,17.60
2018-12-16T12:33:31.760Z,18.10
2018-12-16T12:34:31.751Z,18.70
2018-12-16T12:35:31.707Z,18.70
2018-12-16T12:36:31.708Z,18.80
2018-12-16T12:37:31.680Z,19.40
2018-12-16T12:38:31.686Z,17.50
2018-12-16T12:39:31.697Z,19.40
2018-12-16T12:40:31.649Z,18.20
2018-12-16T12:41:31.641Z,18.20
2018-12-16T12:42:31.631Z,17.90
2018-12-16T12:43:31.620Z,17.50
2018-12-16T12:44:31.665Z,18.00
2018-12-16T12:45:31.590Z,19.30
2018-12-16T12:46:31.581Z,18.00
2018-12-16T12:47:31.591Z,18.60
2018-12-16T12:48:31.576Z,18.60
2018-12-16T12:49:31.563Z,18.70
2018-12-16T12:50:31.578Z,18.50
2018-12-16T12:51:31.525Z,18.80
2018-12-16T12:52:31.509Z,19.10